createdAt,value
2022-08-17T00:00:43.055Z,3.80
2022-08-17T00:03:18.892Z,5.55
2022-08-17T00:06:02.318Z,3.88
2022-08-17T00:08:34.528Z,3.63
2022-08-17T00:11:06.095Z,4.82
2022-08-17T00:13:41.555Z,4.47
2022-08-17T00:16:19.706Z,4.78
2022-08-17T00:19:06.103Z,6.07
2022-08-17T00:22:32.815Z,5.10
2022-08-17T00:24:28.286Z,5.53
2022-08-17T00:26:55.771Z,4.65
2022-08-17T00:29:23.330Z,4.60
2022-08-17T00:31:50.742Z,5.20
2022-08-17T00:34:18.296Z,4.95
2022-08-17T00:36:47.861Z,5.82
2022-08-17T00:39:17.600Z,5.68
2022-08-17T00:41:47.930Z,6.60
2022-08-17T00:44:17.722Z,4.28
2022-08-17T00:46:45.403Z,5.32
2022-08-17T00:49:14.490Z,4.22
2022-08-17T00:51:56.773Z,4.55
2022-08-17T00:54:42.048Z,4.70
2022-08-17T00:57:25.563Z,4.18
2022-08-17T01:00:02.641Z,5.72
2022-08-17T01:02:42.147Z,5.13
2022-08-17T01:05:25.390Z,5.90
2022-08-17T01:07:54.070Z,4.72
2022-08-17T01:11:00.629Z,5.95
2022-08-17T01:13:18.799Z,4.50
2022-08-17T01:15:59.155Z,5.10
2022-08-17T01:18:29.283Z,4.60
2022-08-17T01:20:58.536Z,4.10
2022-08-17T01:23:28.953Z,5.28
2022-08-17T01:26:02.343Z,4.85
2022-08-17T01:28:33.638Z,5.32
2022-08-17T01:31:20.276Z,5.03
2022-08-17T01:33:47.704Z,5.43
2022-08-17T01:36:18.002Z,4.65
2022-08-17T01:38:45.658Z,4.35
2022-08-17T01:41:16.556Z,4.95
2022-08-17T01:43:51.380Z,4.68
2022-08-17T01:46:24.997Z,5.10
2022-08-17T01:48:56.144Z,6.95
2022-08-17T01:51:29.405Z,4.68
2022-08-17T01:54:00.324Z,4.07
2022-08-17T01:56:29.467Z,5.28
2022-08-17T01:58:59.377Z,4.60
2022-08-17T02:01:29.637Z,5.07
2022-08-17T02:04:00.498Z,4.85
2022-08-17T02:06:53.090Z,4.38
2022-08-17T02:09:27.204Z,4.95
2022-08-17T02:11:59.135Z,4.43
2022-08-17T02:14:29.111Z,4.97
2022-08-17T02:16:58.883Z,6.75
2022-08-17T02:19:28.594Z,5.95
2022-08-17T02:21:56.453Z,4.35
2022-08-17T02:24:59.778Z,6.57
2022-08-17T02:27:18.810Z,6.00
2022-08-17T02:29:46.189Z,5.05
2022-08-17T02:32:28.027Z,5.57
2022-08-17T02:34:57.996Z,6.47
2022-08-17T02:37:27.035Z,7.50
2022-08-17T02:39:54.767Z,6.35
2022-08-17T02:42:40.326Z,5.45
2022-08-17T02:45:12.915Z,6.40
2022-08-17T02:47:40.866Z,5.32
2022-08-17T02:50:11.986Z,5.65
2022-08-17T02:52:43.686Z,5.85
2022-08-17T02:55:35.478Z,6.05
2022-08-17T02:58:05.351Z,5.70
2022-08-17T03:00:46.188Z,7.97
2022-08-17T03:06:15.456Z,6.15
2022-08-17T03:08:42.831Z,9.07
2022-08-17T03:11:13.004Z,6.60
2022-08-17T03:13:40.418Z,6.45
2022-08-17T03:16:09.200Z,7.28
2022-08-17T03:18:36.862Z,6.68
2022-08-17T03:21:04.627Z,7.30
2022-08-17T03:23:33.090Z,6.68
2022-08-17T03:26:01.054Z,6.63
2022-08-17T03:28:29.561Z,7.05
2022-08-17T03:30:56.998Z,6.95
2022-08-17T03:33:24.411Z,6.63
2022-08-17T03:35:52.181Z,6.95
2022-08-17T03:38:21.805Z,7.57
2022-08-17T03:40:57.058Z,6.50
2022-08-17T03:43:30.358Z,6.15
2022-08-17T03:46:27.571Z,6.63
2022-08-17T03:49:15.324Z,9.63
2022-08-17T03:52:03.713Z,7.07
2022-08-17T03:54:49.585Z,7.13
2022-08-17T03:57:17.111Z,7.70
2022-08-17T03:59:45.119Z,8.85
2022-08-17T04:02:38.800Z,7.47
2022-08-17T04:05:06.524Z,8.02
2022-08-17T04:07:33.928Z,7.68
2022-08-17T04:10:04.233Z,7.60
2022-08-17T04:12:49.331Z,8.02
2022-08-17T04:15:18.256Z,8.30
2022-08-17T04:17:46.039Z,7.28
2022-08-17T04:20:15.661Z,7.88
2022-08-17T04:23:21.495Z,7.90
2022-08-17T04:25:51.144Z,8.60
2022-08-17T04:28:19.944Z,7.57
2022-08-17T04:30:47.631Z,6.95
2022-08-17T04:33:18.446Z,7.45
2022-08-17T04:35:49.351Z,7.05
2022-08-17T04:38:19.739Z,9.77
2022-08-17T04:41:06.167Z,7.05
2022-08-17T04:43:35.223Z,7.68
2022-08-17T04:46:05.686Z,6.65
2022-08-17T04:48:37.428Z,6.40
2022-08-17T04:53:54.544Z,6.22
2022-08-17T04:56:25.123Z,7.93
2022-08-17T04:58:55.262Z,6.32
2022-08-17T05:01:25.633Z,5.63
2022-08-17T05:03:56.059Z,6.63
2022-08-17T05:06:23.653Z,8.02
2022-08-17T05:08:51.197Z,6.22
2022-08-17T05:11:18.699Z,8.52
2022-08-17T05:13:46.454Z,6.22
2022-08-17T05:16:13.868Z,6.40
2022-08-17T05:18:41.336Z,5.63
2022-08-17T05:21:08.947Z,6.25
2022-08-17T05:23:41.969Z,8.13
2022-08-17T05:26:25.613Z,5.82
2022-08-17T05:28:56.939Z,5.72
2022-08-17T05:31:24.752Z,6.03
2022-08-17T05:33:53.325Z,7.72
2022-08-17T05:36:43.542Z,7.65
2022-08-17T05:39:08.223Z,7.18
2022-08-17T05:41:41.804Z,9.65
2022-08-17T05:44:09.151Z,10.30
2022-08-17T05:46:41.516Z,8.82
2022-08-17T05:49:09.548Z,7.07
2022-08-17T05:52:01.278Z,8.30
2022-08-17T05:55:14.326Z,7.55
2022-08-17T05:58:23.394Z,9.15
2022-08-17T06:01:25.836Z,6.95
2022-08-17T06:04:05.481Z,7.72
2022-08-17T06:06:58.141Z,8.82
2022-08-17T06:09:34.460Z,10.85
2022-08-17T06:12:57.631Z,12.45
2022-08-17T06:15:50.102Z,7.47
2022-08-17T06:18:19.310Z,9.02
2022-08-17T06:20:57.512Z,6.28
2022-08-17T06:23:36.277Z,6.10
2022-08-17T06:26:16.159Z,8.02
2022-08-17T06:29:08.928Z,11.52
2022-08-17T06:31:46.610Z,6.72
2022-08-17T06:34:14.054Z,8.50
2022-08-17T06:37:05.566Z,12.73
2022-08-17T06:40:28.693Z,10.63
2022-08-17T06:43:25.822Z,7.60
2022-08-17T06:46:18.722Z,6.05
2022-08-17T06:49:07.960Z,6.20
2022-08-17T06:51:40.470Z,5.72
2022-08-17T06:54:38.211Z,5.10
2022-08-17T06:57:15.226Z,4.40
2022-08-17T07:00:09.297Z,5.47
2022-08-17T07:03:11.721Z,4.22
2022-08-17T07:05:52.716Z,4.18
2022-08-17T07:08:38.380Z,5.63
2022-08-17T07:11:14.231Z,7.75
2022-08-17T07:14:24.207Z,6.45
2022-08-17T07:16:54.158Z,4.68
2022-08-17T07:19:24.413Z,3.42
2022-08-17T07:22:10.705Z,5.00
2022-08-17T07:25:05.604Z,4.45
2022-08-17T07:27:40.898Z,3.50
2022-08-17T07:30:21.963Z,4.20
2022-08-17T07:32:59.463Z,2.97
2022-08-17T07:35:44.130Z,4.30
2022-08-17T07:38:33.592Z,2.85
2022-08-17T07:41:06.399Z,5.78
2022-08-17T07:44:00.172Z,5.00
2022-08-17T07:46:53.257Z,4.05
2022-08-17T07:49:35.545Z,4.80
2022-08-17T07:52:48.196Z,3.70
2022-08-17T07:55:00.531Z,4.80
2022-08-17T07:57:34.517Z,3.78
2022-08-17T08:00:27.975Z,3.47
2022-08-17T08:03:17.453Z,4.57
2022-08-17T08:05:56.834Z,4.32
2022-08-17T08:08:28.211Z,3.53
2022-08-17T08:11:07.349Z,2.53
2022-08-17T08:13:42.558Z,6.10
2022-08-17T08:16:29.830Z,3.10
2022-08-17T08:19:00.335Z,4.90
2022-08-17T08:21:54.549Z,4.53
2022-08-17T08:24:52.325Z,3.20
2022-08-17T08:28:05.706Z,3.85
2022-08-17T08:30:37.523Z,4.97
2022-08-17T08:33:28.941Z,3.17
2022-08-17T08:37:14.711Z,7.53
2022-08-17T08:39:22.192Z,4.15
2022-08-17T08:42:13.106Z,6.18
2022-08-17T08:45:10.248Z,4.07
2022-08-17T08:48:05.972Z,5.72
2022-08-17T08:50:43.249Z,4.65
2022-08-17T08:53:23.698Z,6.30
2022-08-17T08:56:12.499Z,3.60
2022-08-17T08:59:28.467Z,6.00
2022-08-17T09:02:24.032Z,4.93
2022-08-17T09:05:14.316Z,4.10
2022-08-17T09:08:19.638Z,3.78
2022-08-17T09:12:02.362Z,4.97
2022-08-17T09:15:03.639Z,3.78
2022-08-17T09:17:46.255Z,3.78
2022-08-17T09:20:28.237Z,4.75
2022-08-17T09:23:10.819Z,3.50
2022-08-17T09:25:49.954Z,3.78
2022-08-17T09:28:24.102Z,4.25
2022-08-17T09:30:55.946Z,3.53
2022-08-17T09:33:29.737Z,5.45
2022-08-17T09:36:15.580Z,4.88
2022-08-17T09:39:15.224Z,2.65
2022-08-17T09:42:17.720Z,3.40
2022-08-17T09:45:16.220Z,3.78
2022-08-17T09:48:18.540Z,4.40
2022-08-17T09:51:13.754Z,5.18
2022-08-17T09:53:44.566Z,3.53
2022-08-17T09:56:31.306Z,8.45
2022-08-17T09:59:46.769Z,6.72
2022-08-17T10:02:36.879Z,4.95
2022-08-17T10:05:26.105Z,4.22
2022-08-17T10:08:07.354Z,3.65
2022-08-17T10:10:56.725Z,2.67
2022-08-17T10:13:53.425Z,2.50
2022-08-17T10:16:45.836Z,2.30
2022-08-17T10:19:49.534Z,2.78
2022-08-17T10:22:55.308Z,2.60
2022-08-17T10:25:54.654Z,3.70
2022-08-17T10:28:30.589Z,1.88
2022-08-17T10:31:33.206Z,3.03
2022-08-17T10:34:52.696Z,3.05
2022-08-17T10:37:40.781Z,2.22
2022-08-17T10:40:45.464Z,2.30
2022-08-17T10:43:32.426Z,3.13
2022-08-17T10:46:31.622Z,3.90
2022-08-17T10:49:32.175Z,2.08
2022-08-17T10:52:41.447Z,2.22
2022-08-17T10:55:20.713Z,4.05
2022-08-17T10:57:50.642Z,2.70
2022-08-17T11:01:04.031Z,2.15
2022-08-17T11:03:34.850Z,2.47
2022-08-17T11:06:14.219Z,3.17
2022-08-17T11:09:16.352Z,2.78
2022-08-17T11:12:22.660Z,5.28
2022-08-17T11:15:18.254Z,2.78
2022-08-17T11:18:21.718Z,3.90
2022-08-17T11:21:20.492Z,2.72
2022-08-17T11:24:11.553Z,2.85
2022-08-17T11:26:47.685Z,3.60
2022-08-17T11:29:24.588Z,3.10
2022-08-17T11:32:06.545Z,5.95
2022-08-17T11:34:41.825Z,3.30
2022-08-17T11:37:35.755Z,2.67
2022-08-17T11:40:57.238Z,2.80
2022-08-17T11:43:44.624Z,2.15
2022-08-17T11:47:07.680Z,5.55
2022-08-17T11:50:24.533Z,4.13
2022-08-17T11:52:55.655Z,2.20
2022-08-17T11:56:12.239Z,2.10
2022-08-17T11:58:44.129Z,2.97
2022-08-17T12:01:41.489Z,3.53
2022-08-17T12:04:35.617Z,4.40
2022-08-17T12:07:18.525Z,4.93
2022-08-17T12:09:54.025Z,3.35
2022-08-17T12:12:33.377Z,2.30
2022-08-17T12:15:10.689Z,4.22
2022-08-17T12:17:52.025Z,2.20
2022-08-17T12:23:30.989Z,3.85
2022-08-17T12:26:10.788Z,4.20
2022-08-17T12:28:47.897Z,3.40
2022-08-17T12:31:28.516Z,5.35
2022-08-17T12:33:56.822Z,2.38
2022-08-17T12:36:28.283Z,2.85
2022-08-17T12:39:14.369Z,3.03
2022-08-17T12:41:48.329Z,2.40
2022-08-17T12:44:25.388Z,2.65
2022-08-17T12:47:04.739Z,2.15
2022-08-17T12:49:37.582Z,4.07
2022-08-17T12:52:30.316Z,3.50
2022-08-17T12:55:01.108Z,3.38
2022-08-17T12:57:54.295Z,3.08
2022-08-17T13:00:31.389Z,3.00
2022-08-17T13:03:09.726Z,2.85
2022-08-17T13:05:44.055Z,4.45
2022-08-17T13:11:03.008Z,1.70
2022-08-17T13:13:33.561Z,2.80
2022-08-17T13:16:34.865Z,3.53
2022-08-17T13:19:29.736Z,2.42
2022-08-17T13:22:11.830Z,3.22
2022-08-17T13:24:57.785Z,3.13
2022-08-17T13:27:28.086Z,2.92
2022-08-17T13:29:59.981Z,5.22
2022-08-17T13:32:43.729Z,2.47
2022-08-17T13:35:44.261Z,3.78
2022-08-17T13:38:45.722Z,4.13
2022-08-17T13:41:34.742Z,3.72
2022-08-17T13:44:02.518Z,2.40
2022-08-17T13:46:32.714Z,3.15
2022-08-17T13:49:06.391Z,2.10
2022-08-17T13:51:41.441Z,2.80
2022-08-17T13:54:22.686Z,4.07
2022-08-17T13:57:21.842Z,3.83
2022-08-17T13:59:54.707Z,3.13
2022-08-17T14:02:26.009Z,5.13
2022-08-17T14:05:02.015Z,4.38
2022-08-17T14:07:38.056Z,4.78
2022-08-17T14:10:17.614Z,3.00
2022-08-17T14:12:46.091Z,2.65
2022-08-17T14:15:16.914Z,3.35
2022-08-17T14:17:44.537Z,3.42
2022-08-17T14:20:13.728Z,3.55
2022-08-17T14:22:45.552Z,3.55
2022-08-17T14:25:15.620Z,2.80
2022-08-17T14:27:52.055Z,2.60
2022-08-17T14:30:28.957Z,1.63
2022-08-17T14:32:58.197Z,2.38
2022-08-17T14:35:27.980Z,3.22
2022-08-17T14:37:56.471Z,3.55
2022-08-17T14:40:25.060Z,3.30
2022-08-17T14:42:55.338Z,3.67
2022-08-17T14:45:32.197Z,2.47
2022-08-17T14:48:04.282Z,3.80
2022-08-17T14:50:32.157Z,6.13
2022-08-17T14:53:05.260Z,2.03
2022-08-17T14:55:33.673Z,2.38
2022-08-17T14:58:01.304Z,2.22
2022-08-17T15:00:28.861Z,2.28
2022-08-17T15:02:59.090Z,1.83
2022-08-17T15:05:31.883Z,2.50
2022-08-17T15:08:01.321Z,2.47
2022-08-17T15:10:29.929Z,4.30
2022-08-17T15:12:58.338Z,3.65
2022-08-17T15:15:26.487Z,3.70
2022-08-17T15:17:56.921Z,2.28
2022-08-17T15:20:28.183Z,2.03
2022-08-17T15:22:57.525Z,2.28
2022-08-17T15:25:27.770Z,3.00
2022-08-17T15:27:56.049Z,3.85
2022-08-17T15:30:25.767Z,3.03
2022-08-17T15:32:54.912Z,3.50
2022-08-17T15:35:29.129Z,2.67
2022-08-17T15:38:09.873Z,2.72
2022-08-17T15:40:42.299Z,3.05
2022-08-17T15:43:16.280Z,2.63
2022-08-17T15:45:44.563Z,2.40
2022-08-17T15:48:43.452Z,2.17
2022-08-17T15:51:32.874Z,2.58
2022-08-17T15:54:18.683Z,2.40
2022-08-17T15:56:46.533Z,3.15
2022-08-17T15:59:14.064Z,2.72
2022-08-17T16:02:15.404Z,2.00
2022-08-17T16:04:30.857Z,4.85
2022-08-17T16:06:59.354Z,3.13
2022-08-17T16:09:27.249Z,2.30
2022-08-17T16:11:56.091Z,3.08
2022-08-17T16:14:32.529Z,3.25
2022-08-17T16:17:04.651Z,2.95
2022-08-17T16:19:33.503Z,1.60
2022-08-17T16:22:01.009Z,2.60
2022-08-17T16:24:28.949Z,2.97
2022-08-17T16:26:56.920Z,5.47
2022-08-17T16:29:24.604Z,3.75
2022-08-17T16:31:52.290Z,1.95
2022-08-17T16:34:20.088Z,4.05
2022-08-17T16:36:53.598Z,2.63
2022-08-17T16:39:26.117Z,2.17
2022-08-17T16:41:53.779Z,4.30
2022-08-17T16:44:21.843Z,3.35
2022-08-17T16:46:50.308Z,2.17
2022-08-17T16:49:35.490Z,2.58
2022-08-17T16:52:10.020Z,2.15
2022-08-17T16:54:41.856Z,4.18
2022-08-17T16:57:13.011Z,2.30
2022-08-17T17:02:17.143Z,2.58
2022-08-17T17:05:02.891Z,2.42
2022-08-17T17:08:04.677Z,2.20
2022-08-17T17:10:38.832Z,2.85
2022-08-17T17:13:14.342Z,3.25
2022-08-17T17:16:12.920Z,2.47
2022-08-17T17:19:26.340Z,6.65
2022-08-17T17:22:49.369Z,3.28
2022-08-17T17:25:35.844Z,2.50
2022-08-17T17:28:43.446Z,2.92
2022-08-17T17:31:23.889Z,2.67
2022-08-17T17:33:57.708Z,3.35
2022-08-17T17:36:42.038Z,3.05
2022-08-17T17:39:31.920Z,6.03
2022-08-17T17:42:07.566Z,3.05
2022-08-17T17:44:41.028Z,3.05
2022-08-17T17:47:09.602Z,2.92
2022-08-17T17:49:41.422Z,3.75
2022-08-17T17:52:30.722Z,2.80
2022-08-17T17:55:17.238Z,4.38
2022-08-17T17:58:22.753Z,2.63
2022-08-17T18:01:25.070Z,2.97
2022-08-17T18:04:17.645Z,3.45
2022-08-17T18:07:16.554Z,4.10
2022-08-17T18:10:19.626Z,5.75
2022-08-17T18:13:25.970Z,2.88
2022-08-17T18:15:56.079Z,3.65
2022-08-17T18:18:38.247Z,3.65
2022-08-17T18:21:19.682Z,5.55
2022-08-17T18:23:53.760Z,4.03
2022-08-17T18:26:55.375Z,3.22
2022-08-17T18:29:42.536Z,4.57
2022-08-17T18:32:28.473Z,4.53
2022-08-17T18:35:27.464Z,4.07
2022-08-17T18:38:20.065Z,4.10
2022-08-17T18:41:02.107Z,4.43
2022-08-17T18:43:44.181Z,5.00
2022-08-17T18:46:33.181Z,5.32
2022-08-17T18:49:24.563Z,4.70
2022-08-17T18:52:30.035Z,7.25
2022-08-17T18:55:32.500Z,4.82
2022-08-17T18:58:20.687Z,4.57
2022-08-17T19:00:49.694Z,5.93
2022-08-17T19:03:26.748Z,6.32
2022-08-17T19:06:23.097Z,3.50
2022-08-17T19:08:50.479Z,3.67
2022-08-17T19:11:31.661Z,5.53
2022-08-17T19:14:13.551Z,4.13
2022-08-17T19:19:54.362Z,3.60
2022-08-17T19:22:38.620Z,4.35
2022-08-17T19:25:15.289Z,6.35
2022-08-17T19:28:22.623Z,6.00
2022-08-17T19:30:59.496Z,4.80
2022-08-17T19:33:27.252Z,4.30
2022-08-17T19:36:32.756Z,4.03
2022-08-17T19:39:37.978Z,6.45
2022-08-17T19:42:47.748Z,4.00
2022-08-17T19:45:46.127Z,3.80
2022-08-17T19:48:52.357Z,4.68
2022-08-17T19:51:57.380Z,4.30
2022-08-17T19:54:39.974Z,3.97
2022-08-17T19:57:44.509Z,3.90
2022-08-17T20:00:17.005Z,5.18
2022-08-17T20:03:06.647Z,4.50
2022-08-17T20:06:14.781Z,4.82
2022-08-17T20:09:18.215Z,5.68
2022-08-17T20:11:58.575Z,4.68
2022-08-17T20:14:53.727Z,5.22
2022-08-17T20:17:31.252Z,6.20
2022-08-17T20:20:30.828Z,7.05
2022-08-17T20:23:34.155Z,6.95
2022-08-17T20:26:10.068Z,4.45
2022-08-17T20:28:41.064Z,4.95
2022-08-17T20:31:45.594Z,5.10
2022-08-17T20:34:36.984Z,4.25
2022-08-17T20:37:30.055Z,5.18
2022-08-17T20:40:20.668Z,4.85
2022-08-17T20:42:48.084Z,3.38
2022-08-17T20:45:48.379Z,4.28
2022-08-17T20:48:36.894Z,4.22
2022-08-17T20:51:27.361Z,3.20
2022-08-17T20:54:37.920Z,4.22
2022-08-17T20:57:06.090Z,3.72
2022-08-17T21:00:14.461Z,4.43
2022-08-17T21:02:44.589Z,4.95
2022-08-17T21:05:32.429Z,3.75
2022-08-17T21:08:17.100Z,7.70
2022-08-17T21:10:46.498Z,4.05
2022-08-17T21:13:38.312Z,3.28
2022-08-17T21:16:47.415Z,5.65
2022-08-17T21:20:10.261Z,5.15
2022-08-17T21:23:08.801Z,4.15
2022-08-17T21:26:04.887Z,3.30
2022-08-17T21:29:00.946Z,3.58
2022-08-17T21:32:09.630Z,3.20
2022-08-17T21:35:06.386Z,4.50
2022-08-17T21:37:42.999Z,3.65
2022-08-17T21:40:27.037Z,3.97
2022-08-17T21:43:14.514Z,4.60
2022-08-17T21:45:43.009Z,6.43
2022-08-17T21:48:21.989Z,3.88
2022-08-17T21:51:30.878Z,3.83
2022-08-17T21:54:03.183Z,4.35
2022-08-17T21:56:41.796Z,5.20
2022-08-17T21:59:25.889Z,4.60
2022-08-17T22:02:06.104Z,4.88
2022-08-17T22:04:36.802Z,5.18
2022-08-17T22:07:07.977Z,4.70
2022-08-17T22:09:45.387Z,4.72
2022-08-17T22:12:17.572Z,4.43
2022-08-17T22:15:06.167Z,4.00
2022-08-17T22:17:44.779Z,3.60
2022-08-17T22:20:19.151Z,3.45
2022-08-17T22:23:30.209Z,5.10
2022-08-17T22:26:06.491Z,6.28
2022-08-17T22:28:41.328Z,4.60
2022-08-17T22:31:10.680Z,3.45
2022-08-17T22:33:52.344Z,5.05
2022-08-17T22:36:32.602Z,5.40
2022-08-17T22:39:23.076Z,4.30
2022-08-17T22:41:59.359Z,3.97
2022-08-17T22:44:37.635Z,4.30
2022-08-17T22:47:38.702Z,4.10
2022-08-17T22:50:14.659Z,5.75
2022-08-17T22:53:03.927Z,3.78
2022-08-17T22:55:52.031Z,4.53
2022-08-17T22:58:41.932Z,4.47
2022-08-17T23:01:32.657Z,3.55
2022-08-17T23:04:24.606Z,3.53
2022-08-17T23:06:54.084Z,4.18
2022-08-17T23:09:21.529Z,4.43
2022-08-17T23:11:52.387Z,3.80
2022-08-17T23:14:20.957Z,5.20
2022-08-17T23:16:50.099Z,4.95
2022-08-17T23:19:20.923Z,4.82
2022-08-17T23:21:52.599Z,5.10
2022-08-17T23:24:25.937Z,5.30
2022-08-17T23:26:54.271Z,3.60
2022-08-17T23:29:22.603Z,3.55
2022-08-17T23:31:51.420Z,5.82
2022-08-17T23:34:19.450Z,4.22
2022-08-17T23:36:53.255Z,3.95
2022-08-17T23:39:24.487Z,4.50
2022-08-17T23:41:57.591Z,3.60
2022-08-17T23:44:25.697Z,4.78
2022-08-17T23:46:53.766Z,3.67
2022-08-17T23:49:21.461Z,4.55
2022-08-17T23:51:49.256Z,3.97
2022-08-17T23:54:41.548Z,4.90
2022-08-17T23:57:11.276Z,4.60
2022-08-17T23:59:39.403Z,5.47
